Airfield :
LOGIN :

Register | Disclaimer

   EN    FR    IT 

 










Legend :    VFR   Marginal VFR   IFR   Intensive IFR   Very Intensive IFR
Visi :
Ceiling :
>= 8 km
>= 3000ft
5 to 8 km
1000 to 3000 ft
1500m to 5 km
500 to 1000 ft
800 to 1500m
200 to 500 ft
< 800m
< 200 ft
Symbols :   Thunderstorms  Fog  Heavy snow  Heavy precipitations  Wind > 20 kt
SIGMETs :     Misc.  Thunderstorms  Icing  Turbulence  Mountain Waves  Volcanic Ashes






- Airport Elevation : 113 ft


EKRS - Ringsted

CURRENT METAR :
  • 251950Z AUTO VRB03KT 9999 NCD 12/12 Q1006

EXPIRED METARs :
  • 251920Z AUTO VRB02KT 9999 NCD 12/12 Q1007
  • 251850Z AUTO 21003KT 9999 NCD 12/12 Q1007
  • 251820Z AUTO 23001KT 9999 OVC047/// 13/13 Q1007
  • 251750Z AUTO VRB02KT 9999 BKN042/// OVC062/// 13/13 Q1007
  • 251720Z AUTO VRB01KT 9999 SCT039/// OVC056/// 13/13 Q1008

TAF N/A



MET'MAP, your aeronautical weather chart ! - Copyright ORBIFLY December 2007 - Disclaimer

ORBIFLY MET'MAP TEAM :

Programming & Development : Alexandra Zaïnal
Original concept : Baudouin d'Aumeries
Technical & hardware support : Manuel Goepfert
Assistance : Marc-Olivier Méhu




SOURCES & CREDITS :

   NOAA